createdAt,value
2018-09-11T00:04:49.586Z,23.56
2018-09-11T00:09:53.083Z,23.48
2018-09-11T00:14:56.524Z,23.52
2018-09-11T00:20:00.056Z,23.41
2018-09-11T00:25:03.900Z,23.42
2018-09-11T00:30:07.397Z,23.32
2018-09-11T00:35:10.839Z,23.33
2018-09-11T00:40:14.323Z,23.35
2018-09-11T00:45:17.886Z,23.31
2018-09-11T00:50:21.356Z,23.27
2018-09-11T00:55:24.792Z,23.23
2018-09-11T01:00:28.250Z,23.18
2018-09-11T01:05:31.679Z,23.15
2018-09-11T01:10:35.154Z,23.17
2018-09-11T01:15:38.616Z,23.19
2018-09-11T01:20:42.071Z,23.16
2018-09-11T01:25:45.527Z,23.26
2018-09-11T01:30:48.968Z,23.23
2018-09-11T01:35:52.428Z,22.91
2018-09-11T01:40:55.875Z,22.99
2018-09-11T01:45:59.328Z,23.01
2018-09-11T01:51:02.995Z,22.91
2018-09-11T01:56:06.435Z,23.01
2018-09-11T02:01:09.883Z,22.84
2018-09-11T02:06:13.313Z,22.88
2018-09-11T02:11:16.786Z,22.85
2018-09-11T02:16:20.268Z,22.70
2018-09-11T02:21:23.720Z,22.73
2018-09-11T02:26:27.202Z,22.75
2018-09-11T02:31:30.659Z,22.65
2018-09-11T02:36:34.123Z,22.58
2018-09-11T02:41:37.684Z,22.50
2018-09-11T02:46:41.239Z,22.84
2018-09-11T02:51:44.704Z,23.03
2018-09-11T02:56:48.168Z,23.07
2018-09-11T03:01:51.606Z,23.09
2018-09-11T03:06:55.040Z,23.11
2018-09-11T03:11:58.479Z,23.11
2018-09-11T03:17:01.914Z,23.11
2018-09-11T03:22:05.367Z,23.11
2018-09-11T03:27:08.789Z,23.13
2018-09-11T03:32:12.232Z,23.12
2018-09-11T03:37:15.713Z,23.11
2018-09-11T03:42:19.155Z,23.09
2018-09-11T03:47:22.608Z,22.80
2018-09-11T03:52:26.080Z,22.71
2018-09-11T03:57:29.527Z,22.63
2018-09-11T04:02:32.967Z,22.46
2018-09-11T04:07:36.415Z,22.46
2018-09-11T04:12:39.870Z,22.54
2018-09-11T04:17:43.335Z,22.52
2018-09-11T04:22:46.807Z,22.54
2018-09-11T04:27:50.246Z,22.58
2018-09-11T04:32:53.741Z,22.34
2018-09-11T04:37:57.183Z,22.37
2018-09-11T04:43:00.763Z,22.37
2018-09-11T04:48:04.252Z,22.33
2018-09-11T04:53:07.737Z,22.21
2018-09-11T04:58:11.210Z,22.29
2018-09-11T05:03:14.674Z,22.18
2018-09-11T05:08:18.139Z,22.13
2018-09-11T05:13:21.642Z,22.07
2018-09-11T05:18:25.088Z,22.04
2018-09-11T05:23:28.530Z,22.01
2018-09-11T05:28:31.965Z,21.96
2018-09-11T05:33:35.401Z,21.95
2018-09-11T05:38:38.838Z,21.94
2018-09-11T05:43:42.288Z,21.88
2018-09-11T05:48:45.774Z,21.85
2018-09-11T05:53:49.222Z,21.84
2018-09-11T05:58:52.723Z,21.93
2018-09-11T06:03:56.183Z,21.84
2018-09-11T06:08:59.702Z,21.83
2018-09-11T06:14:03.172Z,21.83
2018-09-11T06:19:06.983Z,21.84
2018-09-11T06:24:10.444Z,21.89
2018-09-11T06:29:14.008Z,21.76
2018-09-11T06:34:17.419Z,21.84
2018-09-11T06:39:20.876Z,21.62
2018-09-11T06:44:24.335Z,21.66
2018-09-11T06:49:27.804Z,21.69
2018-09-11T06:54:31.265Z,21.65
2018-09-11T06:59:34.734Z,21.46
2018-09-11T07:04:38.196Z,21.29
2018-09-11T07:09:41.695Z,21.24
2018-09-11T07:14:45.188Z,21.36
2018-09-11T07:19:48.887Z,21.16
2018-09-11T07:24:52.264Z,21.14
2018-09-11T07:29:55.769Z,21.21
2018-09-11T07:34:59.248Z,21.26
2018-09-11T07:40:02.989Z,21.35
2018-09-11T07:45:06.670Z,21.33
2018-09-11T07:50:10.215Z,21.27
2018-09-11T07:55:13.764Z,21.70
2018-09-11T08:00:17.269Z,22.14
2018-09-11T08:05:20.829Z,22.36
2018-09-11T08:10:24.380Z,22.48
2018-09-11T08:15:27.882Z,22.57
2018-09-11T08:20:31.447Z,22.64
2018-09-11T08:25:34.929Z,22.71
2018-09-11T08:30:38.416Z,22.78
2018-09-11T08:35:41.903Z,22.84
2018-09-11T08:40:45.384Z,22.90
2018-09-11T08:45:48.855Z,22.96
2018-09-11T08:50:52.418Z,23.01
2018-09-11T08:55:55.937Z,23.05
2018-09-11T09:00:59.397Z,23.07
2018-09-11T09:06:02.875Z,23.11
2018-09-11T09:11:06.429Z,23.15
2018-09-11T09:16:09.912Z,23.17
2018-09-11T09:21:13.421Z,23.20
2018-09-11T09:26:16.922Z,23.22
2018-09-11T09:31:20.562Z,23.26
2018-09-11T09:36:24.192Z,23.28
2018-09-11T09:41:27.651Z,23.34
2018-09-11T09:46:31.133Z,23.33
2018-09-11T09:51:34.620Z,23.36
2018-09-11T09:56:38.068Z,23.38
2018-09-11T10:01:46.754Z,23.41
2018-09-11T10:06:50.243Z,23.42
2018-09-11T10:11:53.757Z,23.45
2018-09-11T10:16:57.207Z,23.47
2018-09-11T10:22:00.707Z,23.49
2018-09-11T10:27:04.307Z,23.52
2018-09-11T10:32:07.792Z,23.57
2018-09-11T10:37:11.243Z,23.59
2018-09-11T10:42:14.775Z,23.60
2018-09-11T10:47:18.243Z,23.62
2018-09-11T10:52:21.716Z,23.65
2018-09-11T10:57:25.189Z,23.67
2018-09-11T11:02:33.739Z,23.71
2018-09-11T11:07:37.190Z,23.71
2018-09-11T11:12:40.654Z,23.75
2018-09-11T11:17:44.135Z,23.77
2018-09-11T11:22:47.650Z,23.79
2018-09-11T11:33:00.680Z,23.85
2018-09-11T11:38:10.848Z,23.86
2018-09-11T11:43:14.320Z,23.88
2018-09-11T11:48:17.834Z,23.90
2018-09-11T11:53:21.239Z,23.93
2018-09-11T11:58:24.720Z,23.94
2018-09-11T12:03:28.160Z,23.96
2018-09-11T12:08:32.371Z,23.98
2018-09-11T12:13:35.820Z,23.98
2018-09-11T12:18:39.287Z,24.02
2018-09-11T12:23:42.763Z,24.05
2018-09-11T12:28:46.213Z,24.03
2018-09-11T12:33:49.730Z,24.09
2018-09-11T12:38:53.205Z,24.16
2018-09-11T12:43:56.668Z,24.16
2018-09-11T12:49:00.237Z,24.17
2018-09-11T12:54:03.720Z,24.20
2018-09-11T12:59:07.212Z,24.21
2018-09-11T13:04:10.712Z,24.28
2018-09-11T13:09:14.261Z,24.28
2018-09-11T13:14:17.714Z,24.26
2018-09-11T13:19:21.263Z,24.26
2018-09-11T13:24:24.774Z,24.18
2018-09-11T13:29:28.221Z,24.16
2018-09-11T13:34:31.834Z,24.19
2018-09-11T13:39:35.355Z,24.09
2018-09-11T13:44:38.839Z,24.10
2018-09-11T13:49:42.299Z,24.10
2018-09-11T13:54:45.800Z,24.09
2018-09-11T13:59:49.663Z,24.16
2018-09-11T14:04:53.099Z,24.31
2018-09-11T14:09:56.643Z,24.29
2018-09-11T14:15:00.162Z,24.37
2018-09-11T14:20:04.469Z,24.36
2018-09-11T14:25:07.988Z,24.42
2018-09-11T14:30:11.698Z,24.48
2018-09-11T14:35:15.413Z,24.56
2018-09-11T14:40:18.965Z,24.58
2018-09-11T14:45:22.458Z,24.61
2018-09-11T14:50:25.903Z,24.67
2018-09-11T14:55:29.461Z,24.69
2018-09-11T15:00:33.092Z,24.74
2018-09-11T15:05:36.671Z,24.79
2018-09-11T15:10:40.462Z,24.78
2018-09-11T15:15:43.903Z,24.87
2018-09-11T15:20:47.343Z,24.88
2018-09-11T15:25:50.847Z,24.96
2018-09-11T15:30:54.284Z,25.00
2018-09-11T15:35:57.766Z,25.03
2018-09-11T15:41:01.201Z,25.06
2018-09-11T15:46:04.630Z,25.09
2018-09-11T15:51:08.096Z,25.18
2018-09-11T15:56:11.563Z,25.35
2018-09-11T16:01:15.057Z,25.29
2018-09-11T16:06:18.581Z,25.33
2018-09-11T16:11:22.136Z,25.36
2018-09-11T16:16:25.780Z,25.41
2018-09-11T16:21:29.311Z,25.44
2018-09-11T16:26:33.558Z,25.40
2018-09-11T16:31:37.121Z,25.37
2018-09-11T16:36:40.674Z,25.37
2018-09-11T16:41:44.143Z,25.46
2018-09-11T16:46:47.760Z,25.48
2018-09-11T16:51:51.266Z,25.50
2018-09-11T16:56:54.965Z,25.47
2018-09-11T17:01:58.749Z,25.47
2018-09-11T17:07:02.318Z,25.52
2018-09-11T17:12:05.967Z,25.46
2018-09-11T17:17:09.463Z,25.49
2018-09-11T17:22:12.959Z,25.50
2018-09-11T17:27:16.618Z,25.52
2018-09-11T17:32:20.032Z,25.48
2018-09-11T17:37:23.489Z,25.45
2018-09-11T17:42:27.047Z,25.46
2018-09-11T17:47:30.660Z,25.43
2018-09-11T17:52:34.404Z,25.47
2018-09-11T17:57:38.023Z,25.48
2018-09-11T18:02:41.665Z,25.48
2018-09-11T18:07:45.499Z,25.48
2018-09-11T18:12:49.070Z,25.50
2018-09-11T18:17:52.685Z,25.51
2018-09-11T18:22:56.344Z,25.49
2018-09-11T18:27:59.900Z,25.52
2018-09-11T18:33:03.508Z,25.53
2018-09-11T18:38:07.225Z,25.56
2018-09-11T18:43:10.763Z,25.57
2018-09-11T18:48:14.282Z,25.59
2018-09-11T18:53:19.186Z,25.59
2018-09-11T18:58:22.769Z,25.60
2018-09-11T19:03:26.260Z,25.53
2018-09-11T19:08:29.800Z,25.51
2018-09-11T19:13:33.345Z,25.58
2018-09-11T19:18:37.054Z,25.61
2018-09-11T19:23:40.703Z,25.61
2018-09-11T19:28:44.308Z,25.59
2018-09-11T19:33:47.920Z,25.58
2018-09-11T19:38:51.441Z,25.58
2018-09-11T19:43:54.926Z,25.52
2018-09-11T19:48:58.386Z,25.49
2018-09-11T19:54:01.968Z,25.50
2018-09-11T19:59:05.411Z,25.48
2018-09-11T20:04:08.974Z,25.47
2018-09-11T20:09:12.518Z,25.47
2018-09-11T20:14:15.959Z,25.45
2018-09-11T20:19:19.508Z,25.43
2018-09-11T20:24:23.083Z,25.45
2018-09-11T20:29:26.544Z,25.43
2018-09-11T20:34:30.132Z,25.45
2018-09-11T20:39:33.616Z,25.46
2018-09-11T20:44:37.164Z,25.44
2018-09-11T20:49:40.676Z,25.43
2018-09-11T20:54:44.193Z,25.42
2018-09-11T20:59:47.644Z,25.43
2018-09-11T21:04:51.088Z,25.39
2018-09-11T21:09:54.612Z,25.38
2018-09-11T21:14:58.079Z,25.38
2018-09-11T21:20:01.566Z,25.44
2018-09-11T21:25:06.323Z,25.57
2018-09-11T21:30:09.800Z,25.54
2018-09-11T21:35:13.361Z,25.56
2018-09-11T21:40:16.838Z,25.62
2018-09-11T21:45:20.353Z,25.62
2018-09-11T21:50:23.830Z,25.63
2018-09-11T21:55:27.287Z,25.64
2018-09-11T22:00:30.783Z,25.69
2018-09-11T22:05:34.282Z,25.66
2018-09-11T22:10:38.824Z,25.67
2018-09-11T22:15:42.245Z,25.68
2018-09-11T22:20:46.652Z,25.65
2018-09-11T22:25:50.140Z,25.68
2018-09-11T22:30:53.604Z,25.69
2018-09-11T22:35:57.278Z,25.67
2018-09-11T22:41:01.188Z,25.69
2018-09-11T22:46:05.270Z,25.70
2018-09-11T22:51:09.098Z,25.69
2018-09-11T22:56:12.576Z,25.69
2018-09-11T23:01:16.016Z,25.71
2018-09-11T23:06:19.442Z,25.72
2018-09-11T23:11:22.892Z,25.71
2018-09-11T23:16:26.347Z,25.69
2018-09-11T23:21:29.790Z,25.68
2018-09-11T23:26:33.251Z,25.66
2018-09-11T23:31:36.717Z,25.65
2018-09-11T23:36:40.158Z,25.64
2018-09-11T23:41:43.614Z,25.66
2018-09-11T23:46:47.126Z,25.65
2018-09-11T23:51:50.563Z,25.62
2018-09-11T23:56:54.163Z,25.60
